Time;durP1;ratioP1;P1;durP2;ratioP2;P2;SDS_P1;SDS_P2;PMS_P1;PMS_P2;Temp;Humidity;BMP_temperature;BMP_pressure;BME280_temperature;BME280_humidity;BME280_pressure;Samples;Min_cycle;Max_cycle;Signal;HPM_P1;HPM_P2
2022/01/07 00:00:22;;;;;;;30.33;17.48;;;3.30;99.90;;;;;;5013222;28;20026;-72
2022/01/07 00:02:53;;;;;;;26.08;16.13;;;3.40;99.90;;;;;;4995756;28;20110;-70
2022/01/07 00:05:20;;;;;;;27.08;16.75;;;3.40;99.90;;;;;;5013256;28;20025;-72
2022/01/07 00:07:47;;;;;;;33.75;17.15;;;3.30;99.90;;;;;;5012928;28;20052;-74
2022/01/07 00:10:15;;;;;;;26.42;16.67;;;3.30;99.90;;;;;;5013782;28;20038;-72
2022/01/07 00:12:41;;;;;;;24.52;15.40;;;3.30;99.90;;;;;;5013300;28;20105;-71
2022/01/07 00:15:08;;;;;;;24.55;14.48;;;3.30;99.90;;;;;;4997113;28;20561;-73
2022/01/07 00:17:34;;;;;;;26.88;17.52;;;3.30;99.90;;;;;;5012754;28;20080;-75
2022/01/07 00:20:00;;;;;;;27.20;15.48;;;3.30;99.90;;;;;;4995657;28;20365;-75
2022/01/07 00:22:26;;;;;;;22.27;15.25;;;3.20;99.90;;;;;;5012987;28;20049;-72
2022/01/07 00:24:52;;;;;;;24.77;15.38;;;3.30;99.90;;;;;;4979214;28;20449;-76
2022/01/07 00:27:18;;;;;;;27.73;15.95;;;3.30;99.90;;;;;;5007151;28;20113;-74
2022/01/07 00:29:44;;;;;;;27.42;16.42;;;3.30;99.90;;;;;;5013218;28;20064;-75
2022/01/07 00:32:10;;;;;;;29.98;18.38;;;3.30;99.90;;;;;;5013246;28;20033;-75
2022/01/07 00:34:36;;;;;;;27.90;17.60;;;3.20;99.90;;;;;;5012686;28;20030;-74
2022/01/07 00:37:02;;;;;;;32.10;20.13;;;3.20;99.90;;;;;;5012773;28;20065;-73
2022/01/07 00:39:28;;;;;;;36.90;20.95;;;3.30;99.90;;;;;;5012882;28;20026;-76
2022/01/07 00:41:54;;;;;;;34.20;20.73;;;3.20;99.90;;;;;;5012450;28;20033;-72
2022/01/07 00:44:20;;;;;;;41.50;23.02;;;3.30;99.90;;;;;;5012097;28;20044;-70
2022/01/07 00:46:46;;;;;;;35.33;20.77;;;3.30;99.90;;;;;;5012569;28;20502;-72
2022/01/07 00:49:13;;;;;;;42.15;25.85;;;3.30;99.90;;;;;;5012636;28;20036;-73
2022/01/07 00:51:39;;;;;;;40.80;24.67;;;3.30;99.90;;;;;;5012780;28;20350;-76
2022/01/07 00:54:05;;;;;;;40.95;24.70;;;3.30;99.90;;;;;;5012339;28;20096;-74
2022/01/07 00:56:31;;;;;;;35.20;22.00;;;3.30;99.90;;;;;;5011282;28;20376;-75
2022/01/07 00:58:57;;;;;;;38.55;21.80;;;3.30;99.90;;;;;;4977762;28;20042;-73
2022/01/07 01:01:23;;;;;;;32.35;19.33;;;3.30;99.90;;;;;;5013052;28;20441;-71
2022/01/07 01:03:49;;;;;;;35.20;21.95;;;3.30;99.90;;;;;;5012586;28;20034;-74
2022/01/07 01:06:15;;;;;;;29.70;18.55;;;3.20;99.90;;;;;;4994860;28;20030;-73
2022/01/07 01:08:41;;;;;;;30.15;18.00;;;3.20;99.90;;;;;;4994545;28;20066;-72
2022/01/07 01:11:07;;;;;;;25.48;16.00;;;3.20;99.90;;;;;;5012141;28;20540;-72
2022/01/07 01:13:33;;;;;;;30.05;16.65;;;3.20;99.90;;;;;;5012165;28;20037;-72
2022/01/07 01:15:59;;;;;;;25.45;15.55;;;3.30;99.90;;;;;;5012709;28;20080;-72
2022/01/07 01:18:25;;;;;;;22.38;14.95;;;3.20;99.90;;;;;;5012295;28;20033;-72
2022/01/07 01:20:51;;;;;;;26.80;15.85;;;3.30;99.90;;;;;;5012023;28;20538;-72
2022/01/07 01:23:17;;;;;;;24.90;15.90;;;3.30;99.90;;;;;;4994455;28;20487;-72
2022/01/07 01:25:43;;;;;;;25.80;16.95;;;3.30;99.90;;;;;;5012222;28;20092;-72
2022/01/07 01:28:09;;;;;;;30.02;18.60;;;3.20;99.90;;;;;;5012173;28;20038;-72
2022/01/07 01:30:36;;;;;;;30.42;20.60;;;3.20;99.90;;;;;;4994807;28;20022;-72
2022/01/07 01:33:02;;;;;;;31.52;18.92;;;3.20;99.90;;;;;;5012254;28;20033;-71
2022/01/07 01:35:29;;;;;;;34.78;23.02;;;3.20;99.90;;;;;;5012362;28;20145;-71
2022/01/07 01:37:55;;;;;;;32.58;21.05;;;3.20;99.90;;;;;;5012129;28;20026;-72
2022/01/07 01:40:22;;;;;;;35.05;19.63;;;3.10;99.90;;;;;;5012274;28;20101;-72
2022/01/07 01:42:52;;;;;;;35.08;22.33;;;3.00;99.90;;;;;;5012199;28;20482;-73
2022/01/07 01:45:19;;;;;;;31.52;18.42;;;3.00;99.90;;;;;;5012235;28;20157;-71
2022/01/07 01:47:46;;;;;;;31.40;17.88;;;3.00;99.90;;;;;;5012053;28;20044;-73
2022/01/07 01:50:13;;;;;;;26.95;15.98;;;3.00;99.90;;;;;;4994523;28;20485;-72
2022/01/07 01:52:48;;;;;;;22.65;14.50;;;2.90;99.90;;;;;;5012318;28;20290;-74
2022/01/07 01:55:16;;;;;;;23.80;12.60;;;2.90;99.90;;;;;;4994588;28;20029;-74
2022/01/07 01:57:42;;;;;;;22.08;12.77;;;2.90;99.90;;;;;;5007193;28;20046;-73
2022/01/07 02:00:09;;;;;;;19.63;10.52;;;2.90;99.90;;;;;;5011775;28;20081;-72
2022/01/07 02:02:38;;;;;;;15.77;8.23;;;2.80;99.90;;;;;;4994398;28;20036;-72
2022/01/07 02:05:05;;;;;;;16.00;7.13;;;2.80;99.90;;;;;;5011507;28;20088;-72
2022/01/07 02:07:35;;;;;;;11.20;5.60;;;2.80;99.90;;;;;;5011377;28;20399;-72
2022/01/07 02:10:07;;;;;;;10.25;5.65;;;2.80;99.90;;;;;;5011593;28;20061;-71
2022/01/07 02:12:33;;;;;;;13.52;6.45;;;2.70;99.90;;;;;;5011643;28;20480;-71
2022/01/07 02:14:59;;;;;;;12.70;5.47;;;2.80;99.90;;;;;;5010406;28;20030;-72
2022/01/07 02:17:27;;;;;;;8.45;5.10;;;2.70;99.90;;;;;;5011548;28;20038;-72
2022/01/07 02:19:56;;;;;;;10.05;4.97;;;2.70;99.90;;;;;;5011603;28;20049;-72
2022/01/07 02:22:26;;;;;;;10.68;5.00;;;2.70;99.90;;;;;;5011919;28;20251;-71
2022/01/07 02:24:53;;;;;;;9.73;5.25;;;2.70;99.90;;;;;;5011769;28;20133;-75
2022/01/07 02:27:19;;;;;;;11.43;5.45;;;2.60;99.90;;;;;;5011526;28;20096;-74
2022/01/07 02:29:49;;;;;;;8.98;5.07;;;2.60;99.90;;;;;;5011694;28;20030;-74
2022/01/07 02:32:15;;;;;;;12.43;6.07;;;2.60;99.90;;;;;;5011595;28;20586;-71
2022/01/07 02:34:42;;;;;;;13.45;5.25;;;2.50;99.90;;;;;;5011171;28;20021;-72
2022/01/07 02:37:08;;;;;;;14.35;6.05;;;2.40;99.90;;;;;;4977365;28;20029;-75
2022/01/07 02:39:33;;;;;;;12.00;6.43;;;2.30;99.90;;;;;;5011329;28;20467;-73
2022/01/07 02:42:00;;;;;;;12.90;6.25;;;2.30;99.90;;;;;;5011263;28;20023;-72
2022/01/07 02:44:27;;;;;;;15.98;5.75;;;2.30;99.90;;;;;;4993565;28;20076;-72
2022/01/07 02:46:53;;;;;;;11.25;5.47;;;2.20;99.90;;;;;;5011001;28;20044;-73
2022/01/07 02:49:19;;;;;;;14.27;6.53;;;2.30;99.90;;;;;;5011176;28;20093;-72
2022/01/07 02:51:47;;;;;;;12.90;6.45;;;2.20;99.90;;;;;;5011238;28;20022;-71
2022/01/07 02:54:13;;;;;;;11.20;6.50;;;2.20;99.90;;;;;;5011283;28;20358;-72
2022/01/07 02:56:40;;;;;;;10.70;6.07;;;2.10;99.90;;;;;;5010821;28;20392;-73
2022/01/07 02:59:07;;;;;;;14.88;7.45;;;2.10;99.90;;;;;;5010334;28;20037;-72
2022/01/07 03:01:36;;;;;;;13.27;7.45;;;2.10;99.90;;;;;;5011098;28;20432;-72
2022/01/07 03:04:03;;;;;;;13.05;5.68;;;2.00;99.90;;;;;;5011170;28;20026;-75
2022/01/07 03:06:32;;;;;;;14.38;6.28;;;2.00;99.90;;;;;;5011353;28;20029;-73
2022/01/07 03:08:59;;;;;;;10.82;5.72;;;2.10;99.90;;;;;;5010993;28;20057;-72
2022/01/07 03:11:26;;;;;;;15.45;6.65;;;2.10;99.90;;;;;;5009634;28;20034;-76
2022/01/07 03:13:52;;;;;;;11.68;6.22;;;2.10;99.90;;;;;;5008765;28;20116;-72
2022/01/07 03:16:18;;;;;;;15.43;6.10;;;2.10;99.90;;;;;;4988528;28;20030;-74
2022/01/07 03:18:45;;;;;;;11.90;5.88;;;2.10;99.90;;;;;;5012700;28;20026;-75
2022/01/07 03:21:11;;;;;;;13.68;6.47;;;2.10;99.90;;;;;;5014987;28;20033;-74
2022/01/07 03:23:40;;;;;;;16.70;6.72;;;2.10;99.90;;;;;;5014216;28;20092;-74
2022/01/07 03:26:06;;;;;;;15.48;7.40;;;2.00;99.90;;;;;;5014181;28;20041;-73
2022/01/07 03:28:32;;;;;;;17.20;7.70;;;2.00;99.90;;;;;;5007580;28;20026;-75
2022/01/07 03:30:59;;;;;;;20.88;10.52;;;1.90;99.90;;;;;;4995229;28;20022;-74
2022/01/07 03:33:25;;;;;;;24.73;12.23;;;1.90;99.90;;;;;;4977537;28;20026;-73
2022/01/07 03:35:52;;;;;;;31.17;13.88;;;1.90;99.90;;;;;;4994989;28;20033;-74
2022/01/07 03:38:18;;;;;;;31.63;14.43;;;1.90;99.90;;;;;;4994570;28;20030;-73
2022/01/07 03:40:44;;;;;;;23.08;11.57;;;1.90;99.90;;;;;;4994419;28;20049;-71
2022/01/07 03:43:10;;;;;;;22.75;10.55;;;1.80;99.90;;;;;;4994945;28;20480;-74
2022/01/07 03:45:36;;;;;;;23.05;11.43;;;1.80;99.90;;;;;;4994128;28;20621;-74
2022/01/07 03:48:03;;;;;;;17.60;7.53;;;1.80;99.90;;;;;;4976851;28;20510;-74
2022/01/07 03:50:30;;;;;;;14.13;7.32;;;1.80;99.90;;;;;;4994685;28;20031;-74
2022/01/07 03:52:57;;;;;;;18.02;8.05;;;1.80;99.90;;;;;;4994834;28;20027;-74
2022/01/07 03:55:26;;;;;;;16.17;8.77;;;1.70;99.90;;;;;;4994573;28;20038;-75
2022/01/07 03:57:53;;;;;;;16.92;8.18;;;1.70;99.90;;;;;;4976981;28;20053;-74
2022/01/07 04:00:22;;;;;;;18.95;9.23;;;1.70;99.90;;;;;;4994366;28;20042;-73
2022/01/07 04:02:49;;;;;;;23.38;12.38;;;1.80;99.90;;;;;;4994330;28;20023;-74
2022/01/07 04:05:19;;;;;;;20.85;11.50;;;1.80;99.90;;;;;;4994712;28;20054;-73
2022/01/07 04:07:45;;;;;;;23.27;11.93;;;1.80;99.90;;;;;;4994553;28;20218;-73
2022/01/07 04:10:12;;;;;;;22.60;13.55;;;1.80;99.90;;;;;;4977017;28;20027;-74
2022/01/07 04:12:38;;;;;;;22.48;11.90;;;1.90;99.90;;;;;;4994429;28;20030;-74
2022/01/07 04:15:08;;;;;;;28.98;15.15;;;1.80;99.90;;;;;;4994273;28;20018;-73
2022/01/07 04:17:36;;;;;;;24.48;14.30;;;1.80;99.90;;;;;;4989792;28;20030;-74
2022/01/07 04:20:04;;;;;;;35.88;17.83;;;1.80;99.90;;;;;;4992881;28;20491;-74
2022/01/07 04:22:32;;;;;;;33.42;18.70;;;1.70;99.90;;;;;;4992875;28;20424;-73
2022/01/07 04:25:00;;;;;;;42.35;23.95;;;1.50;99.90;;;;;;4994161;28;20018;-74
2022/01/07 04:27:26;;;;;;;44.08;23.60;;;1.50;99.90;;;;;;4994060;28;20548;-73
2022/01/07 04:29:52;;;;;;;49.28;24.85;;;1.50;99.90;;;;;;4993694;28;20026;-74
2022/01/07 04:32:18;;;;;;;28.25;16.35;;;1.60;99.90;;;;;;4993937;28;20026;-73
2022/01/07 04:34:47;;;;;;;33.50;16.13;;;1.60;99.90;;;;;;4994120;28;20033;-74
2022/01/07 04:37:13;;;;;;;31.73;16.63;;;1.50;99.90;;;;;;4993572;28;20031;-75
2022/01/07 04:39:39;;;;;;;30.13;16.08;;;1.40;99.90;;;;;;4992504;28;20428;-74
2022/01/07 04:42:06;;;;;;;27.15;14.68;;;1.40;99.90;;;;;;4993824;28;20400;-72
2022/01/07 04:44:31;;;;;;;26.58;14.80;;;1.30;99.90;;;;;;4993545;28;20019;-73
2022/01/07 04:46:57;;;;;;;22.85;14.18;;;1.20;99.90;;;;;;4993563;28;20050;-74
2022/01/07 04:49:23;;;;;;;36.92;19.73;;;1.20;99.90;;;;;;4993838;28;20026;-73
2022/01/07 04:51:49;;;;;;;41.70;24.70;;;1.10;99.90;;;;;;4993527;28;20034;-73
2022/01/07 04:54:15;;;;;;;46.33;24.25;;;1.20;99.90;;;;;;4993588;28;20033;-73
2022/01/07 04:56:41;;;;;;;52.13;31.35;;;1.10;99.90;;;;;;4975659;28;20026;-74
2022/01/07 04:59:07;;;;;;;53.72;32.47;;;1.10;99.90;;;;;;4993456;28;20037;-72
2022/01/07 05:01:33;;;;;;;51.35;32.15;;;1.10;99.90;;;;;;5005419;28;20053;-72
2022/01/07 05:03:59;;;;;;;52.15;32.22;;;1.00;99.90;;;;;;5012688;28;20092;-73
2022/01/07 05:06:44;;;;;;;45.63;28.63;;;1.10;99.90;;;;;;5012594;28;20026;-70
2022/01/07 05:09:13;;;;;;;41.53;23.80;;;1.10;99.90;;;;;;5012520;28;20065;-73
2022/01/07 05:11:40;;;;;;;43.85;26.23;;;1.00;99.90;;;;;;5012432;28;20461;-74
2022/01/07 05:14:06;;;;;;;49.38;28.02;;;1.00;99.90;;;;;;4994872;28;20080;-73
2022/01/07 05:16:32;;;;;;;46.58;27.67;;;1.00;99.90;;;;;;4995050;28;20029;-75
2022/01/07 05:18:58;;;;;;;52.45;28.77;;;0.90;99.90;;;;;;5012834;28;20030;-74
2022/01/07 05:21:24;;;;;;;41.67;26.92;;;0.90;99.90;;;;;;5012494;28;20022;-71
2022/01/07 05:23:50;;;;;;;38.30;23.77;;;0.90;99.90;;;;;;5012432;28;20066;-73
2022/01/07 05:26:16;;;;;;;34.67;20.98;;;0.90;99.90;;;;;;5011886;28;20026;-73
2022/01/07 05:28:42;;;;;;;33.67;21.70;;;0.90;99.90;;;;;;5012246;28;20060;-73
2022/01/07 05:31:08;;;;;;;38.38;24.17;;;0.90;99.90;;;;;;5012480;28;20026;-73
2022/01/07 05:33:35;;;;;;;37.42;25.45;;;0.80;99.90;;;;;;5012371;28;20030;-73
2022/01/07 05:36:01;;;;;;;43.67;27.70;;;0.70;99.90;;;;;;5012171;28;20412;-72
2022/01/07 05:38:27;;;;;;;42.92;25.75;;;0.60;99.90;;;;;;5012207;28;20036;-72
2022/01/07 05:40:53;;;;;;;39.75;23.50;;;0.60;99.90;;;;;;5011478;28;20669;-73
2022/01/07 05:43:19;;;;;;;40.40;22.20;;;0.70;99.90;;;;;;4994001;28;20130;-74
2022/01/07 05:45:46;;;;;;;38.15;23.60;;;0.60;99.90;;;;;;5011850;28;20049;-74
2022/01/07 05:48:15;;;;;;;42.58;24.45;;;0.60;99.90;;;;;;5009135;28;20040;-71
2022/01/07 05:50:41;;;;;;;39.88;24.20;;;0.60;99.90;;;;;;4993433;28;20380;-74
2022/01/07 05:53:07;;;;;;;36.10;24.35;;;0.60;99.90;;;;;;5007427;28;20030;-75
2022/01/07 05:55:33;;;;;;;51.42;30.00;;;0.70;99.90;;;;;;5011328;28;20026;-70
2022/01/07 05:57:59;;;;;;;50.63;32.85;;;0.60;99.90;;;;;;4993300;28;20049;-72
2022/01/07 06:00:25;;;;;;;56.40;36.10;;;0.60;99.90;;;;;;5011197;28;20237;-75
2022/01/07 06:02:51;;;;;;;69.03;41.08;;;0.70;99.90;;;;;;5011189;28;20041;-74
2022/01/07 06:05:17;;;;;;;63.72;37.58;;;0.70;99.90;;;;;;5011487;28;20084;-74
2022/01/07 06:07:43;;;;;;;62.92;37.58;;;0.60;99.90;;;;;;5011113;28;20285;-75
2022/01/07 06:10:10;;;;;;;67.25;40.55;;;0.70;99.90;;;;;;5010900;28;20084;-71
2022/01/07 06:12:36;;;;;;;70.00;40.08;;;0.70;99.90;;;;;;4961469;28;20022;-74
2022/01/07 06:15:03;;;;;;;70.80;41.13;;;0.70;99.90;;;;;;4963637;28;20026;-73
2022/01/07 06:17:28;;;;;;;84.72;46.40;;;0.70;99.90;;;;;;5010636;28;20024;-76
2022/01/07 06:19:55;;;;;;;80.90;44.30;;;0.70;99.90;;;;;;5010877;28;20403;-74
2022/01/07 06:22:21;;;;;;;62.83;33.63;;;0.70;99.90;;;;;;4993594;28;20029;-72
2022/01/07 06:24:47;;;;;;;50.17;28.23;;;0.80;99.90;;;;;;5011304;28;20491;-75
2022/01/07 06:27:13;;;;;;;56.08;31.23;;;0.70;99.90;;;;;;5011132;28;20029;-74
2022/01/07 06:29:39;;;;;;;49.53;30.05;;;0.70;99.90;;;;;;5010076;28;20476;-72
2022/01/07 06:32:06;;;;;;;46.63;29.25;;;0.70;99.90;;;;;;5011166;28;20029;-72
2022/01/07 06:34:33;;;;;;;37.33;20.85;;;0.70;99.90;;;;;;5011282;28;20464;-74
2022/01/07 06:37:00;;;;;;;36.30;23.00;;;0.70;99.90;;;;;;4993532;28;20091;-72
2022/01/07 06:39:28;;;;;;;50.28;31.00;;;0.70;99.90;;;;;;4993735;28;20026;-75
2022/01/07 06:41:57;;;;;;;69.85;40.83;;;0.70;99.90;;;;;;5010734;28;20081;-74
2022/01/07 06:44:23;;;;;;;76.97;42.95;;;0.70;99.90;;;;;;5010713;28;20022;-74
2022/01/07 06:46:49;;;;;;;58.75;33.75;;;0.70;99.90;;;;;;5011353;28;20089;-74
2022/01/07 06:49:15;;;;;;;64.88;36.10;;;0.70;99.90;;;;;;4993511;28;20026;-73
2022/01/07 06:51:43;;;;;;;63.65;40.03;;;0.70;99.90;;;;;;5010992;28;20040;-73
2022/01/07 06:54:11;;;;;;;64.82;39.63;;;0.60;99.90;;;;;;5011286;28;20543;-74
2022/01/07 06:56:43;;;;;;;64.50;39.67;;;0.70;99.90;;;;;;4993088;28;20060;-73
2022/01/07 06:59:12;;;;;;;62.40;38.83;;;0.80;99.90;;;;;;5010265;28;20480;-73
2022/01/07 07:01:42;;;;;;;64.38;39.65;;;0.90;99.90;;;;;;5010902;28;20048;-72
2022/01/07 07:04:08;;;;;;;79.28;44.75;;;1.00;99.90;;;;;;5010881;28;20030;-74
2022/01/07 07:06:35;;;;;;;72.15;44.53;;;1.00;99.90;;;;;;5011004;28;20505;-74
2022/01/07 07:09:02;;;;;;;90.05;54.72;;;1.00;99.90;;;;;;4993402;28;20026;-74
2022/01/07 07:11:31;;;;;;;95.78;60.33;;;1.10;99.90;;;;;;5010389;28;20029;-70
2022/01/07 07:13:57;;;;;;;93.75;60.20;;;1.20;99.90;;;;;;5010631;28;20030;-75
2022/01/07 07:16:23;;;;;;;116.85;75.93;;;1.30;99.90;;;;;;5010520;28;20030;-76
2022/01/07 07:18:50;;;;;;;90.30;56.40;;;1.40;99.90;;;;;;5010799;28;20029;-76
2022/01/07 07:21:16;;;;;;;66.38;41.65;;;1.50;99.90;;;;;;4993465;28;20030;-68
2022/01/07 07:23:42;;;;;;;49.75;31.17;;;1.60;99.90;;;;;;5012165;28;20033;-76
2022/01/07 07:26:08;;;;;;;48.55;30.67;;;1.60;99.90;;;;;;5010493;28;20030;-75
2022/01/07 07:28:36;;;;;;;48.03;27.42;;;1.70;99.90;;;;;;5010943;28;20045;-74
2022/01/07 07:31:11;;;;;;;53.67;28.25;;;1.80;99.90;;;;;;5010589;28;20030;-74
2022/01/07 07:36:31;;;;;;;48.22;27.45;;;1.90;99.90;;;;;;5010929;28;20095;-74
2022/01/07 07:39:09;;;;;;;39.85;26.75;;;1.90;99.90;;;;;;5009901;28;20476;-74
2022/01/07 07:41:38;;;;;;;36.03;20.67;;;2.00;99.90;;;;;;5004946;28;20042;-74
2022/01/07 07:44:04;;;;;;;37.97;22.63;;;2.10;99.90;;;;;;5010756;28;20029;-75
2022/01/07 07:46:32;;;;;;;49.00;28.65;;;2.20;99.90;;;;;;5010244;28;20388;-75
2022/01/07 07:49:00;;;;;;;54.10;32.08;;;2.30;99.90;;;;;;5010887;28;20480;-73
2022/01/07 07:51:27;;;;;;;49.88;30.15;;;2.30;99.90;;;;;;4987300;28;20038;-75
2022/01/07 07:53:53;;;;;;;38.60;23.10;;;2.50;99.90;;;;;;5010688;28;20076;-74
2022/01/07 07:56:19;;;;;;;36.15;19.70;;;2.60;99.90;;;;;;5010472;28;20105;-74
2022/01/07 07:58:46;;;;;;;38.45;21.63;;;2.50;99.90;;;;;;5009955;28;20476;-74
2022/01/07 08:01:12;;;;;;;35.78;23.15;;;2.50;99.90;;;;;;4993347;28;20026;-72
2022/01/07 08:03:39;;;;;;;38.35;22.98;;;2.60;99.90;;;;;;5010353;28;20026;-76
2022/01/07 08:06:06;;;;;;;38.78;22.13;;;2.60;99.90;;;;;;4996207;28;20042;-74
2022/01/07 08:08:32;;;;;;;35.25;18.33;;;2.60;99.90;;;;;;5013252;28;20053;-71
2022/01/07 08:11:01;;;;;;;31.90;19.90;;;2.70;97.20;;;;;;5013142;28;20437;-72
2022/01/07 08:15:57;;;;;;;38.08;22.00;;;2.80;96.30;;;;;;5013423;28;20490;-74
2022/01/07 08:16:16;;;;;;;38.50;22.05;;;2.80;99.50;;;;;;5013471;28;20030;-75
2022/01/07 08:18:43;;;;;;;31.38;18.70;;;2.90;99.60;;;;;;5011737;28;20383;-71
2022/01/07 08:21:11;;;;;;;42.40;21.00;;;3.00;95.70;;;;;;5013413;28;20487;-74
2022/01/07 08:23:39;;;;;;;31.30;18.75;;;3.00;97.90;;;;;;5013376;28;20041;-72
2022/01/07 08:26:09;;;;;;;33.50;19.38;;;3.00;98.40;;;;;;5012810;28;20030;-74
2022/01/07 08:28:46;;;;;;;35.35;18.92;;;3.10;97.60;;;;;;5013222;28;20104;-73
2022/01/07 08:36:29;;;;;;;35.20;19.30;;;3.50;92.60;;;;;;4987359;28;20113;-75
2022/01/07 08:38:56;;;;;;;38.80;21.20;;;3.40;91.90;;;;;;5010124;28;20029;-72
2022/01/07 08:41:25;;;;;;;36.47;20.13;;;3.40;92.60;;;;;;5012903;28;20030;-70
2022/01/07 08:43:51;;;;;;;42.70;24.42;;;3.30;91.30;;;;;;5013382;28;20105;-72
2022/01/07 08:46:17;;;;;;;35.17;20.63;;;3.30;93.00;;;;;;5013299;28;20492;-72
2022/01/07 08:48:43;;;;;;;34.33;20.90;;;3.20;95.40;;;;;;5013358;28;20088;-71
2022/01/07 08:51:09;;;;;;;37.75;21.13;;;3.40;93.60;;;;;;5013292;28;20026;-71
2022/01/07 08:53:36;;;;;;;31.33;16.70;;;3.40;93.40;;;;;;5013430;28;20235;-73
2022/01/07 08:56:04;;;;;;;29.25;15.63;;;3.30;90.80;;;;;;5013264;28;20033;-72
2022/01/07 08:58:30;;;;;;;26.60;16.65;;;3.30;90.20;;;;;;5007696;28;20046;-72
2022/01/07 09:00:56;;;;;;;24.35;15.63;;;3.50;93.10;;;;;;5012657;28;20523;-73
2022/01/07 09:03:23;;;;;;;36.42;20.40;;;3.40;92.30;;;;;;5026812;28;20025;-72
2022/01/07 09:05:50;;;;;;;30.17;17.38;;;3.40;90.60;;;;;;5032766;28;20017;-72
2022/01/07 09:08:16;;;;;;;32.58;20.73;;;3.40;90.60;;;;;;5013445;28;20116;-73
2022/01/07 09:10:43;;;;;;;33.45;19.88;;;3.60;90.70;;;;;;4995630;28;20033;-73
2022/01/07 09:13:10;;;;;;;29.92;18.33;;;3.80;90.80;;;;;;5012714;28;20026;-72
2022/01/07 09:15:37;;;;;;;33.10;20.55;;;3.90;90.20;;;;;;5010681;28;20084;-76
2022/01/07 09:18:10;;;;;;;30.58;18.15;;;4.00;90.60;;;;;;5012554;28;20029;-68
2022/01/07 09:20:37;;;;;;;33.13;18.10;;;4.20;90.80;;;;;;5012960;28;20587;-69
2022/01/07 09:23:04;;;;;;;29.17;16.98;;;4.20;85.90;;;;;;5012838;28;20041;-73
2022/01/07 09:25:31;;;;;;;28.27;15.20;;;4.40;86.60;;;;;;5012685;28;20484;-74
2022/01/07 09:27:57;;;;;;;23.52;13.50;;;4.70;86.30;;;;;;5012325;28;20038;-71
2022/01/07 09:30:23;;;;;;;22.88;13.32;;;4.70;83.10;;;;;;5012031;28;20076;-71
2022/01/07 09:32:49;;;;;;;30.70;13.68;;;4.60;80.60;;;;;;5012897;28;20026;-68
2022/01/07 09:35:16;;;;;;;27.35;15.68;;;4.60;84.30;;;;;;5012762;28;20507;-72
2022/01/07 09:37:42;;;;;;;31.70;16.45;;;4.70;82.30;;;;;;5012697;28;20129;-74
2022/01/07 09:40:11;;;;;;;20.85;11.55;;;4.80;82.60;;;;;;5012547;28;20040;-71
2022/01/07 09:42:37;;;;;;;26.08;14.15;;;4.70;80.00;;;;;;5012174;28;20537;-73
2022/01/07 09:45:04;;;;;;;20.55;11.77;;;4.50;75.40;;;;;;4995469;28;20460;-74
2022/01/07 09:47:30;;;;;;;22.50;12.55;;;4.40;75.60;;;;;;5017189;28;20080;-73
2022/01/07 09:49:58;;;;;;;25.02;12.30;;;4.40;78.30;;;;;;5014250;28;20038;-73
2022/01/07 09:52:26;;;;;;;23.35;13.30;;;4.60;78.50;;;;;;5011979;28;20044;-71
2022/01/07 09:54:53;;;;;;;23.27;12.63;;;4.50;78.90;;;;;;5011050;28;20101;-74
2022/01/07 09:57:19;;;;;;;22.92;13.52;;;4.60;79.40;;;;;;5011522;28;20458;-73
2022/01/07 09:59:57;;;;;;;26.08;14.00;;;4.70;80.90;;;;;;5011894;28;20030;-73
2022/01/07 10:02:24;;;;;;;23.30;11.77;;;4.80;81.80;;;;;;5011484;28;20033;-72
2022/01/07 10:04:50;;;;;;;20.15;11.27;;;4.80;78.70;;;;;;5012112;28;20022;-71
2022/01/07 10:07:23;;;;;;;20.80;11.02;;;4.70;78.60;;;;;;5011368;28;20088;-74
2022/01/07 10:10:01;;;;;;;23.58;12.80;;;4.60;80.90;;;;;;5011473;28;20060;-73
2022/01/07 10:12:29;;;;;;;20.80;11.95;;;4.70;80.40;;;;;;5009768;28;20127;-74
2022/01/07 10:15:15;;;;;;;23.67;13.15;;;4.50;80.70;;;;;;5010713;28;20022;-73
2022/01/07 10:17:52;;;;;;;23.10;12.85;;;4.30;78.00;;;;;;5000946;28;20037;-74
2022/01/07 10:20:23;;;;;;;24.65;13.90;;;4.40;84.30;;;;;;5011256;28;20630;-74
2022/01/07 10:22:53;;;;;;;25.02;14.05;;;4.40;79.80;;;;;;5011667;28;20026;-75
2022/01/07 10:25:22;;;;;;;29.23;15.85;;;4.50;78.20;;;;;;5011492;28;20072;-73
2022/01/07 10:27:48;;;;;;;32.83;17.65;;;4.40;78.40;;;;;;5011017;28;20034;-74
2022/01/07 10:30:17;;;;;;;28.80;15.85;;;4.60;79.60;;;;;;5011113;28;20108;-73
2022/01/07 10:32:44;;;;;;;30.02;14.77;;;4.50;77.90;;;;;;5011165;28;20535;-74
2022/01/07 10:35:13;;;;;;;28.67;14.43;;;4.60;81.40;;;;;;5011302;28;20026;-71
2022/01/07 10:38:05;;;;;;;24.92;12.43;;;4.50;81.30;;;;;;5011838;28;20047;-72
2022/01/07 10:40:33;;;;;;;24.07;12.87;;;4.60;77.30;;;;;;4973253;28;20457;-73
2022/01/07 10:43:24;;;;;;;27.70;11.43;;;4.60;78.30;;;;;;4993326;28;20084;-75
2022/01/07 10:45:53;;;;;;;16.13;8.38;;;4.50;77.60;;;;;;5010589;28;20030;-74
2022/01/07 10:48:22;;;;;;;22.30;9.68;;;4.50;74.30;;;;;;5011491;28;20497;-74
2022/01/07 10:50:53;;;;;;;16.25;9.13;;;4.40;75.10;;;;;;5011007;28;20026;-73
2022/01/07 10:53:28;;;;;;;14.02;7.30;;;4.50;74.30;;;;;;5011224;28;20484;-72
2022/01/07 10:56:03;;;;;;;18.08;11.05;;;4.60;74.90;;;;;;5011441;28;20052;-70
2022/01/07 10:58:35;;;;;;;21.13;10.25;;;4.60;75.70;;;;;;5010826;28;20053;-73
2022/01/07 11:01:01;;;;;;;21.63;11.23;;;4.70;74.10;;;;;;5011460;28;20112;-73
2022/01/07 11:03:33;;;;;;;24.60;11.23;;;4.60;78.00;;;;;;5010687;28;20029;-74
2022/01/07 11:06:02;;;;;;;19.20;9.53;;;4.50;79.10;;;;;;5011749;28;20018;-73
2022/01/07 11:08:27;;;;;;;22.42;10.68;;;4.60;75.90;;;;;;5010926;28;20034;-74
2022/01/07 11:10:55;;;;;;;17.77;10.80;;;4.50;76.70;;;;;;5010498;28;20018;-71
2022/01/07 11:13:21;;;;;;;18.02;9.85;;;4.50;76.10;;;;;;5011411;28;20447;-74
2022/01/07 11:15:47;;;;;;;19.15;11.35;;;4.50;73.40;;;;;;5011373;28;20029;-69
2022/01/07 11:18:13;;;;;;;19.63;10.07;;;4.60;73.90;;;;;;5011284;28;20026;-71
2022/01/07 11:20:39;;;;;;;18.55;9.98;;;4.60;73.70;;;;;;5011074;28;20368;-73
2022/01/07 11:23:06;;;;;;;19.52;10.25;;;4.50;71.70;;;;;;5010857;28;20026;-74
2022/01/07 11:25:32;;;;;;;20.50;10.93;;;4.60;74.30;;;;;;5011422;28;20022;-75
2022/01/07 11:28:00;;;;;;;20.85;11.85;;;4.70;75.70;;;;;;5010963;28;20111;-71
2022/01/07 11:30:32;;;;;;;23.20;12.85;;;4.70;73.40;;;;;;5011178;28;20034;-72
2022/01/07 11:33:00;;;;;;;20.38;11.18;;;4.90;75.80;;;;;;5010835;28;20101;-73
2022/01/07 11:35:26;;;;;;;22.42;13.23;;;5.00;78.30;;;;;;5010900;28;20079;-74
2022/01/07 11:37:58;;;;;;;23.58;11.10;;;5.10;75.10;;;;;;4993641;28;20033;-73
2022/01/07 11:40:32;;;;;;;13.15;6.88;;;5.20;74.80;;;;;;5013698;28;20384;-69
2022/01/07 11:43:00;;;;;;;15.00;7.50;;;5.00;72.10;;;;;;5014851;28;20042;-73
2022/01/07 11:45:29;;;;;;;15.82;8.38;;;5.00;70.40;;;;;;5014866;28;20376;-72
2022/01/07 11:48:09;;;;;;;15.30;8.52;;;4.80;71.60;;;;;;5014826;28;20034;-72
2022/01/07 11:50:59;;;;;;;17.08;8.95;;;5.00;72.70;;;;;;5014248;28;20034;-71
2022/01/07 11:53:29;;;;;;;19.70;9.50;;;5.00;71.10;;;;;;5002242;28;20081;-73
2022/01/07 11:56:00;;;;;;;17.65;8.98;;;5.00;70.90;;;;;;5014630;28;20052;-72
2022/01/07 11:58:44;;;;;;;23.67;10.15;;;4.90;72.60;;;;;;5014104;28;20407;-71
2022/01/07 12:01:35;;;;;;;15.50;8.50;;;4.90;72.50;;;;;;5014575;28;20084;-74
2022/01/07 12:04:27;;;;;;;16.15;8.68;;;4.90;73.60;;;;;;5014927;28;20070;-73
2022/01/07 12:06:57;;;;;;;18.20;10.43;;;5.00;72.90;;;;;;5014416;28;20026;-73
2022/01/07 12:09:42;;;;;;;15.48;7.75;;;4.80;72.20;;;;;;5014383;28;20230;-73
2022/01/07 12:12:13;;;;;;;16.05;7.57;;;4.90;70.90;;;;;;5014276;28;20030;-74
2022/01/07 12:14:51;;;;;;;18.80;8.95;;;4.60;70.50;;;;;;5013629;28;20518;-73
2022/01/07 12:17:19;;;;;;;16.77;8.30;;;4.70;70.90;;;;;;5007060;28;20026;-73
2022/01/07 12:19:48;;;;;;;14.85;7.35;;;4.70;72.00;;;;;;5013512;28;20374;-72
2022/01/07 12:22:16;;;;;;;16.05;7.68;;;4.60;69.70;;;;;;5013818;28;20026;-73
2022/01/07 12:24:45;;;;;;;19.05;9.25;;;4.80;70.30;;;;;;5013801;28;20113;-74
2022/01/07 12:27:17;;;;;;;18.00;7.78;;;4.70;70.30;;;;;;5013501;28;20030;-74
2022/01/07 12:29:45;;;;;;;15.57;7.40;;;4.80;70.50;;;;;;5013965;28;20030;-74
2022/01/07 12:32:16;;;;;;;21.13;9.55;;;4.80;69.80;;;;;;4996331;28;20260;-72
2022/01/07 12:34:45;;;;;;;17.58;7.45;;;4.80;69.40;;;;;;5013622;28;20382;-74
2022/01/07 12:37:14;;;;;;;13.95;6.28;;;4.70;66.30;;;;;;5006266;28;20077;-73
2022/01/07 12:39:43;;;;;;;11.00;5.53;;;4.80;66.30;;;;;;5013941;28;20084;-72
2022/01/07 12:42:10;;;;;;;12.68;5.75;;;4.60;65.10;;;;;;5014011;28;20029;-74
2022/01/07 12:44:39;;;;;;;13.60;6.82;;;4.80;66.50;;;;;;5013854;28;20087;-74
2022/01/07 12:47:08;;;;;;;13.15;5.70;;;4.80;70.20;;;;;;5013768;28;20180;-73
2022/01/07 12:49:39;;;;;;;12.40;5.35;;;4.80;69.10;;;;;;5013690;28;20030;-74